sensor_id;sensor_type;location;lat;lon;timestamp;P1;durP1;ratioP1;P2;durP2;ratioP2
9222;SDS011;7557;51.698;3.942;2024-01-15T00:01:03;744.40;;;619.93;;
9222;SDS011;7557;51.698;3.942;2024-01-15T00:03:30;675.97;;;614.87;;
9222;SDS011;7557;51.698;3.942;2024-01-15T00:05:58;711.93;;;632.87;;
9222;SDS011;7557;51.698;3.942;2024-01-15T00:08:25;598.50;;;548.63;;
9222;SDS011;7557;51.698;3.942;2024-01-15T00:10:53;580.23;;;539.50;;
9222;SDS011;7557;51.698;3.942;2024-01-15T00:13:20;498.90;;;468.73;;
9222;SDS011;7557;51.698;3.942;2024-01-15T00:15:47;642.63;;;597.00;;
9222;SDS011;7557;51.698;3.942;2024-01-15T00:18:17;445.70;;;421.83;;
9222;SDS011;7557;51.698;3.942;2024-01-15T00:20:44;594.07;;;540.60;;
9222;SDS011;7557;51.698;3.942;2024-01-15T00:23:12;623.93;;;570.23;;
9222;SDS011;7557;51.698;3.942;2024-01-15T00:25:40;853.53;;;640.80;;
9222;SDS011;7557;51.698;3.942;2024-01-15T00:28:08;1207.30;;;622.43;;
9222;SDS011;7557;51.698;3.942;2024-01-15T00:30:35;1999.90;;;672.00;;
9222;SDS011;7557;51.698;3.942;2024-01-15T00:33:03;1267.30;;;732.30;;
9222;SDS011;7557;51.698;3.942;2024-01-15T00:35:32;770.07;;;640.23;;
9222;SDS011;7557;51.698;3.942;2024-01-15T00:38:00;693.30;;;622.67;;
9222;SDS011;7557;51.698;3.942;2024-01-15T00:40:27;558.00;;;510.07;;
9222;SDS011;7557;51.698;3.942;2024-01-15T00:42:57;490.13;;;447.83;;
9222;SDS011;7557;51.698;3.942;2024-01-15T00:45:24;164.37;;;157.73;;
9222;SDS011;7557;51.698;3.942;2024-01-15T00:47:52;229.70;;;218.17;;
9222;SDS011;7557;51.698;3.942;2024-01-15T00:50:21;269.57;;;257.73;;
9222;SDS011;7557;51.698;3.942;2024-01-15T00:52:52;113.47;;;109.03;;
9222;SDS011;7557;51.698;3.942;2024-01-15T00:55:19;218.63;;;206.93;;
9222;SDS011;7557;51.698;3.942;2024-01-15T00:57:46;446.87;;;422.60;;
9222;SDS011;7557;51.698;3.942;2024-01-15T01:00:14;592.77;;;522.03;;
9222;SDS011;7557;51.698;3.942;2024-01-15T01:02:42;557.77;;;502.93;;
9222;SDS011;7557;51.698;3.942;2024-01-15T01:05:09;839.43;;;574.53;;
9222;SDS011;7557;51.698;3.942;2024-01-15T01:07:37;629.87;;;568.67;;
9222;SDS011;7557;51.698;3.942;2024-01-15T01:10:06;571.67;;;518.87;;
9222;SDS011;7557;51.698;3.942;2024-01-15T01:12:34;426.63;;;398.53;;
9222;SDS011;7557;51.698;3.942;2024-01-15T01:15:02;770.13;;;656.30;;
9222;SDS011;7557;51.698;3.942;2024-01-15T01:17:30;543.97;;;487.03;;
9222;SDS011;7557;51.698;3.942;2024-01-15T01:19:57;1999.90;;;778.40;;
9222;SDS011;7557;51.698;3.942;2024-01-15T01:22:25;1999.90;;;590.87;;
9222;SDS011;7557;51.698;3.942;2024-01-15T01:24:52;1999.90;;;663.47;;
9222;SDS011;7557;51.698;3.942;2024-01-15T01:27:21;1809.97;;;610.20;;
9222;SDS011;7557;51.698;3.942;2024-01-15T01:29:49;1945.63;;;412.13;;
9222;SDS011;7557;51.698;3.942;2024-01-15T01:32:17;486.27;;;446.73;;
9222;SDS011;7557;51.698;3.942;2024-01-15T01:34:44;340.63;;;322.47;;
9222;SDS011;7557;51.698;3.942;2024-01-15T01:37:12;533.30;;;487.00;;
9222;SDS011;7557;51.698;3.942;2024-01-15T01:39:41;522.23;;;476.83;;
9222;SDS011;7557;51.698;3.942;2024-01-15T01:42:10;332.57;;;310.00;;
9222;SDS011;7557;51.698;3.942;2024-01-15T01:44:39;309.13;;;290.10;;
9222;SDS011;7557;51.698;3.942;2024-01-15T01:47:06;449.13;;;412.97;;
9222;SDS011;7557;51.698;3.942;2024-01-15T01:49:34;316.93;;;299.63;;
9222;SDS011;7557;51.698;3.942;2024-01-15T01:52:04;437.27;;;407.57;;
9222;SDS011;7557;51.698;3.942;2024-01-15T01:54:33;344.00;;;319.87;;
9222;SDS011;7557;51.698;3.942;2024-01-15T01:57:02;255.13;;;241.83;;
9222;SDS011;7557;51.698;3.942;2024-01-15T01:59:30;294.67;;;278.13;;
9222;SDS011;7557;51.698;3.942;2024-01-15T02:02:00;274.97;;;256.50;;
9222;SDS011;7557;51.698;3.942;2024-01-15T02:04:29;529.17;;;486.90;;
9222;SDS011;7557;51.698;3.942;2024-01-15T02:06:58;1763.27;;;580.97;;
9222;SDS011;7557;51.698;3.942;2024-01-15T02:09:26;1200.03;;;522.53;;
9222;SDS011;7557;51.698;3.942;2024-01-15T02:11:53;1999.90;;;484.07;;
9222;SDS011;7557;51.698;3.942;2024-01-15T02:14:21;993.03;;;463.17;;
9222;SDS011;7557;51.698;3.942;2024-01-15T02:16:49;733.40;;;526.93;;
9222;SDS011;7557;51.698;3.942;2024-01-15T02:19:18;1964.17;;;646.20;;
9222;SDS011;7557;51.698;3.942;2024-01-15T02:21:45;1476.30;;;700.50;;
9222;SDS011;7557;51.698;3.942;2024-01-15T02:24:15;812.03;;;564.90;;
9222;SDS011;7557;51.698;3.942;2024-01-15T02:26:42;800.87;;;480.80;;
9222;SDS011;7557;51.698;3.942;2024-01-15T02:29:10;828.30;;;575.00;;
9222;SDS011;7557;51.698;3.942;2024-01-15T02:31:38;654.33;;;557.90;;
9222;SDS011;7557;51.698;3.942;2024-01-15T02:34:09;611.67;;;557.87;;
9222;SDS011;7557;51.698;3.942;2024-01-15T02:36:36;361.33;;;337.60;;
9222;SDS011;7557;51.698;3.942;2024-01-15T02:39:04;446.17;;;418.73;;
9222;SDS011;7557;51.698;3.942;2024-01-15T02:41:33;324.10;;;308.97;;
9222;SDS011;7557;51.698;3.942;2024-01-15T02:44:01;398.47;;;369.43;;
9222;SDS011;7557;51.698;3.942;2024-01-15T02:46:34;692.93;;;550.40;;
9222;SDS011;7557;51.698;3.942;2024-01-15T02:49:02;768.70;;;588.03;;
9222;SDS011;7557;51.698;3.942;2024-01-15T02:51:29;460.40;;;427.90;;
9222;SDS011;7557;51.698;3.942;2024-01-15T02:53:57;544.20;;;493.90;;
9222;SDS011;7557;51.698;3.942;2024-01-15T02:56:24;481.10;;;442.57;;
9222;SDS011;7557;51.698;3.942;2024-01-15T02:58:53;457.77;;;413.53;;
9222;SDS011;7557;51.698;3.942;2024-01-15T03:01:21;426.00;;;388.80;;
9222;SDS011;7557;51.698;3.942;2024-01-15T03:03:48;426.53;;;393.80;;
9222;SDS011;7557;51.698;3.942;2024-01-15T03:06:16;512.40;;;447.93;;
9222;SDS011;7557;51.698;3.942;2024-01-15T03:09:00;1074.13;;;576.40;;
9222;SDS011;7557;51.698;3.942;2024-01-15T03:11:45;478.00;;;436.20;;
9222;SDS011;7557;51.698;3.942;2024-01-15T03:14:31;663.10;;;551.57;;
9222;SDS011;7557;51.698;3.942;2024-01-15T03:17:21;510.30;;;464.30;;
9222;SDS011;7557;51.698;3.942;2024-01-15T03:20:06;1001.97;;;527.13;;
9222;SDS011;7557;51.698;3.942;2024-01-15T03:22:52;448.87;;;412.23;;
9222;SDS011;7557;51.698;3.942;2024-01-15T03:25:37;469.40;;;425.37;;
9222;SDS011;7557;51.698;3.942;2024-01-15T03:28:21;590.07;;;533.77;;
9222;SDS011;7557;51.698;3.942;2024-01-15T03:31:08;559.17;;;508.03;;
9222;SDS011;7557;51.698;3.942;2024-01-15T03:33:53;596.27;;;538.40;;
9222;SDS011;7557;51.698;3.942;2024-01-15T03:36:40;538.67;;;476.37;;
9222;SDS011;7557;51.698;3.942;2024-01-15T03:39:25;1942.10;;;524.57;;
9222;SDS011;7557;51.698;3.942;2024-01-15T03:42:12;1287.80;;;603.83;;
9222;SDS011;7557;51.698;3.942;2024-01-15T03:44:57;1999.90;;;658.80;;
9222;SDS011;7557;51.698;3.942;2024-01-15T03:47:43;896.83;;;570.00;;
9222;SDS011;7557;51.698;3.942;2024-01-15T03:50:28;1412.90;;;564.93;;
9222;SDS011;7557;51.698;3.942;2024-01-15T03:53:13;699.80;;;506.03;;
9222;SDS011;7557;51.698;3.942;2024-01-15T03:55:57;440.50;;;402.50;;
9222;SDS011;7557;51.698;3.942;2024-01-15T03:58:42;399.00;;;369.97;;
9222;SDS011;7557;51.698;3.942;2024-01-15T04:01:27;368.77;;;347.90;;
9222;SDS011;7557;51.698;3.942;2024-01-15T04:03:58;567.77;;;511.50;;
9222;SDS011;7557;51.698;3.942;2024-01-15T04:06:25;302.33;;;284.83;;
9222;SDS011;7557;51.698;3.942;2024-01-15T04:08:53;377.37;;;351.67;;
9222;SDS011;7557;51.698;3.942;2024-01-15T04:11:21;344.23;;;319.10;;
9222;SDS011;7557;51.698;3.942;2024-01-15T04:13:48;586.53;;;534.07;;
9222;SDS011;7557;51.698;3.942;2024-01-15T04:16:16;1055.83;;;639.50;;
9222;SDS011;7557;51.698;3.942;2024-01-15T04:18:44;339.87;;;321.73;;
9222;SDS011;7557;51.698;3.942;2024-01-15T04:21:13;249.87;;;239.93;;
9222;SDS011;7557;51.698;3.942;2024-01-15T04:23:40;132.73;;;125.63;;
9222;SDS011;7557;51.698;3.942;2024-01-15T04:26:08;210.83;;;201.10;;
9222;SDS011;7557;51.698;3.942;2024-01-15T04:28:35;136.83;;;130.27;;
9222;SDS011;7557;51.698;3.942;2024-01-15T04:31:03;200.40;;;191.33;;
9222;SDS011;7557;51.698;3.942;2024-01-15T04:33:30;527.87;;;491.90;;
9222;SDS011;7557;51.698;3.942;2024-01-15T04:36:01;670.23;;;516.97;;
9222;SDS011;7557;51.698;3.942;2024-01-15T04:38:32;811.03;;;606.17;;
9222;SDS011;7557;51.698;3.942;2024-01-15T04:41:01;589.93;;;536.83;;
9222;SDS011;7557;51.698;3.942;2024-01-15T04:43:28;1317.43;;;610.27;;
9222;SDS011;7557;51.698;3.942;2024-01-15T04:45:56;585.50;;;493.73;;
9222;SDS011;7557;51.698;3.942;2024-01-15T04:48:24;534.70;;;484.17;;
9222;SDS011;7557;51.698;3.942;2024-01-15T04:50:51;518.07;;;460.57;;
9222;SDS011;7557;51.698;3.942;2024-01-15T04:53:19;617.43;;;509.93;;
9222;SDS011;7557;51.698;3.942;2024-01-15T04:55:47;1999.90;;;537.43;;
9222;SDS011;7557;51.698;3.942;2024-01-15T04:58:15;1516.03;;;704.33;;
9222;SDS011;7557;51.698;3.942;2024-01-15T05:00:42;1830.78;;;638.47;;
9222;SDS011;7557;51.698;3.942;2024-01-15T05:03:09;1001.60;;;638.17;;
9222;SDS011;7557;51.698;3.942;2024-01-15T05:05:38;1522.87;;;685.03;;
9222;SDS011;7557;51.698;3.942;2024-01-15T05:08:05;1179.10;;;622.90;;
9222;SDS011;7557;51.698;3.942;2024-01-15T05:10:33;1811.47;;;637.27;;
9222;SDS011;7557;51.698;3.942;2024-01-15T05:13:02;1999.90;;;727.60;;
9222;SDS011;7557;51.698;3.942;2024-01-15T05:15:30;1957.10;;;606.60;;
9222;SDS011;7557;51.698;3.942;2024-01-15T05:17:57;1999.90;;;651.07;;
9222;SDS011;7557;51.698;3.942;2024-01-15T05:20:25;1999.90;;;650.73;;
9222;SDS011;7557;51.698;3.942;2024-01-15T05:22:54;1999.90;;;597.23;;
9222;SDS011;7557;51.698;3.942;2024-01-15T05:25:25;1898.97;;;635.40;;
9222;SDS011;7557;51.698;3.942;2024-01-15T05:27:52;1999.90;;;616.77;;
9222;SDS011;7557;51.698;3.942;2024-01-15T05:30:21;1201.67;;;422.50;;
9222;SDS011;7557;51.698;3.942;2024-01-15T05:32:48;1506.40;;;485.07;;
9222;SDS011;7557;51.698;3.942;2024-01-15T05:35:17;1999.90;;;658.47;;
9222;SDS011;7557;51.698;3.942;2024-01-15T05:37:45;1999.90;;;641.97;;
9222;SDS011;7557;51.698;3.942;2024-01-15T05:40:13;1536.87;;;518.53;;
9222;SDS011;7557;51.698;3.942;2024-01-15T05:42:41;1622.00;;;597.23;;
9222;SDS011;7557;51.698;3.942;2024-01-15T05:45:08;803.07;;;539.93;;
9222;SDS011;7557;51.698;3.942;2024-01-15T05:47:38;1610.30;;;773.33;;
9222;SDS011;7557;51.698;3.942;2024-01-15T05:50:05;1999.90;;;746.27;;
9222;SDS011;7557;51.698;3.942;2024-01-15T05:52:33;912.30;;;612.87;;
9222;SDS011;7557;51.698;3.942;2024-01-15T05:55:01;1233.87;;;646.67;;
9222;SDS011;7557;51.698;3.942;2024-01-15T05:57:28;789.83;;;580.33;;
9222;SDS011;7557;51.698;3.942;2024-01-15T05:59:56;676.80;;;611.63;;
9222;SDS011;7557;51.698;3.942;2024-01-15T06:02:23;698.07;;;628.77;;
9222;SDS011;7557;51.698;3.942;2024-01-15T06:04:52;738.10;;;653.10;;
9222;SDS011;7557;51.698;3.942;2024-01-15T06:07:22;623.63;;;574.97;;
9222;SDS011;7557;51.698;3.942;2024-01-15T06:09:49;545.20;;;500.70;;
9222;SDS011;7557;51.698;3.942;2024-01-15T06:12:17;814.97;;;664.30;;
9222;SDS011;7557;51.698;3.942;2024-01-15T06:14:44;889.90;;;621.10;;
9222;SDS011;7557;51.698;3.942;2024-01-15T06:17:12;1999.90;;;814.07;;
9222;SDS011;7557;51.698;3.942;2024-01-15T06:19:39;1619.83;;;725.23;;
9222;SDS011;7557;51.698;3.942;2024-01-15T06:22:09;1818.07;;;642.20;;
9222;SDS011;7557;51.698;3.942;2024-01-15T06:24:36;897.93;;;675.10;;
9222;SDS011;7557;51.698;3.942;2024-01-15T06:27:04;1345.10;;;632.20;;
9222;SDS011;7557;51.698;3.942;2024-01-15T06:29:31;1096.03;;;599.93;;
9222;SDS011;7557;51.698;3.942;2024-01-15T06:31:59;889.53;;;621.20;;
9222;SDS011;7557;51.698;3.942;2024-01-15T06:34:26;999.67;;;662.50;;
9222;SDS011;7557;51.698;3.942;2024-01-15T06:36:55;1430.90;;;693.60;;
9222;SDS011;7557;51.698;3.942;2024-01-15T06:39:24;598.77;;;553.20;;
9222;SDS011;7557;51.698;3.942;2024-01-15T06:41:52;1381.37;;;655.67;;
9222;SDS011;7557;51.698;3.942;2024-01-15T06:44:19;999.13;;;590.80;;
9222;SDS011;7557;51.698;3.942;2024-01-15T06:46:48;596.47;;;529.57;;
9222;SDS011;7557;51.698;3.942;2024-01-15T06:49:17;703.97;;;545.47;;
9222;SDS011;7557;51.698;3.942;2024-01-15T06:51:44;1009.43;;;588.53;;
9222;SDS011;7557;51.698;3.942;2024-01-15T06:54:11;1526.57;;;608.80;;
9222;SDS011;7557;51.698;3.942;2024-01-15T06:56:40;852.47;;;579.57;;
9222;SDS011;7557;51.698;3.942;2024-01-15T06:59:08;519.90;;;469.03;;
9222;SDS011;7557;51.698;3.942;2024-01-15T07:01:35;594.00;;;516.43;;
9222;SDS011;7557;51.698;3.942;2024-01-15T07:04:03;1264.47;;;557.37;;
9222;SDS011;7557;51.698;3.942;2024-01-15T07:06:30;510.67;;;468.17;;
9222;SDS011;7557;51.698;3.942;2024-01-15T07:08:58;665.63;;;541.13;;
9222;SDS011;7557;51.698;3.942;2024-01-15T07:11:25;533.57;;;470.67;;
9222;SDS011;7557;51.698;3.942;2024-01-15T07:13:54;584.83;;;486.77;;
9222;SDS011;7557;51.698;3.942;2024-01-15T07:16:22;488.97;;;439.43;;
9222;SDS011;7557;51.698;3.942;2024-01-15T07:18:49;612.23;;;463.33;;
9222;SDS011;7557;51.698;3.942;2024-01-15T07:21:16;458.60;;;412.77;;
9222;SDS011;7557;51.698;3.942;2024-01-15T07:23:44;389.27;;;354.67;;
9222;SDS011;7557;51.698;3.942;2024-01-15T07:26:11;452.73;;;388.10;;
9222;SDS011;7557;51.698;3.942;2024-01-15T07:28:39;392.37;;;359.40;;
9222;SDS011;7557;51.698;3.942;2024-01-15T07:31:08;525.17;;;420.63;;
9222;SDS011;7557;51.698;3.942;2024-01-15T07:33:35;497.83;;;443.47;;
9222;SDS011;7557;51.698;3.942;2024-01-15T07:36:03;950.83;;;571.80;;
9222;SDS011;7557;51.698;3.942;2024-01-15T07:38:31;1563.27;;;497.07;;
9222;SDS011;7557;51.698;3.942;2024-01-15T07:40:59;366.80;;;328.40;;
9222;SDS011;7557;51.698;3.942;2024-01-15T07:43:26;387.93;;;351.00;;
9222;SDS011;7557;51.698;3.942;2024-01-15T07:45:54;280.30;;;264.73;;
9222;SDS011;7557;51.698;3.942;2024-01-15T07:48:24;436.87;;;393.83;;
9222;SDS011;7557;51.698;3.942;2024-01-15T07:50:51;1692.67;;;681.10;;
9222;SDS011;7557;51.698;3.942;2024-01-15T07:53:19;395.63;;;359.67;;
9222;SDS011;7557;51.698;3.942;2024-01-15T07:55:46;490.00;;;439.90;;
9222;SDS011;7557;51.698;3.942;2024-01-15T07:58:14;479.27;;;429.57;;
9222;SDS011;7557;51.698;3.942;2024-01-15T08:00:41;472.13;;;405.60;;
9222;SDS011;7557;51.698;3.942;2024-01-15T08:03:08;773.10;;;474.63;;
9222;SDS011;7557;51.698;3.942;2024-01-15T08:05:37;514.77;;;415.17;;
9222;SDS011;7557;51.698;3.942;2024-01-15T08:08:05;446.90;;;402.30;;
9222;SDS011;7557;51.698;3.942;2024-01-15T08:10:32;431.00;;;386.10;;
9222;SDS011;7557;51.698;3.942;2024-01-15T08:13:00;466.63;;;421.20;;
9222;SDS011;7557;51.698;3.942;2024-01-15T08:15:27;1149.03;;;570.17;;
9222;SDS011;7557;51.698;3.942;2024-01-15T08:17:55;1999.90;;;637.43;;
9222;SDS011;7557;51.698;3.942;2024-01-15T08:20:23;1472.73;;;436.33;;
9222;SDS011;7557;51.698;3.942;2024-01-15T08:22:52;1144.10;;;531.83;;
9222;SDS011;7557;51.698;3.942;2024-01-15T08:25:20;775.03;;;478.03;;
9222;SDS011;7557;51.698;3.942;2024-01-15T08:27:47;1274.20;;;692.37;;
9222;SDS011;7557;51.698;3.942;2024-01-15T08:30:16;987.37;;;619.17;;
9222;SDS011;7557;51.698;3.942;2024-01-15T08:32:45;489.93;;;451.60;;
9222;SDS011;7557;51.698;3.942;2024-01-15T08:35:13;555.67;;;432.00;;
9222;SDS011;7557;51.698;3.942;2024-01-15T08:37:40;1014.17;;;528.70;;
9222;SDS011;7557;51.698;3.942;2024-01-15T08:40:10;768.77;;;440.47;;
9222;SDS011;7557;51.698;3.942;2024-01-15T08:42:38;1999.90;;;586.37;;
9222;SDS011;7557;51.698;3.942;2024-01-15T08:45:06;1805.10;;;607.17;;
9222;SDS011;7557;51.698;3.942;2024-01-15T08:47:34;1999.90;;;614.90;;
9222;SDS011;7557;51.698;3.942;2024-01-15T08:50:02;1146.17;;;335.93;;
9222;SDS011;7557;51.698;3.942;2024-01-15T08:52:30;1541.07;;;636.47;;
9222;SDS011;7557;51.698;3.942;2024-01-15T08:54:57;1880.97;;;500.87;;
9222;SDS011;7557;51.698;3.942;2024-01-15T08:57:28;497.40;;;454.70;;
9222;SDS011;7557;51.698;3.942;2024-01-15T08:59:56;438.90;;;405.27;;
9222;SDS011;7557;51.698;3.942;2024-01-15T09:02:23;267.17;;;255.47;;
9222;SDS011;7557;51.698;3.942;2024-01-15T09:04:51;368.63;;;347.17;;
9222;SDS011;7557;51.698;3.942;2024-01-15T09:07:19;1670.43;;;578.13;;
9222;SDS011;7557;51.698;3.942;2024-01-15T09:09:46;1788.07;;;647.93;;
9222;SDS011;7557;51.698;3.942;2024-01-15T09:12:14;1439.23;;;600.10;;
9222;SDS011;7557;51.698;3.942;2024-01-15T09:14:45;857.33;;;620.07;;
9222;SDS011;7557;51.698;3.942;2024-01-15T09:17:12;562.40;;;477.57;;
9222;SDS011;7557;51.698;3.942;2024-01-15T09:19:40;551.80;;;494.17;;
9222;SDS011;7557;51.698;3.942;2024-01-15T09:22:08;454.00;;;411.47;;
9222;SDS011;7557;51.698;3.942;2024-01-15T09:24:35;543.70;;;486.87;;
9222;SDS011;7557;51.698;3.942;2024-01-15T09:27:03;1324.67;;;676.03;;
9222;SDS011;7557;51.698;3.942;2024-01-15T09:29:30;1040.27;;;616.73;;
9222;SDS011;7557;51.698;3.942;2024-01-15T09:31:59;1650.10;;;577.33;;
9222;SDS011;7557;51.698;3.942;2024-01-15T09:34:28;1999.90;;;632.60;;
9222;SDS011;7557;51.698;3.942;2024-01-15T09:36:55;1999.90;;;638.50;;
9222;SDS011;7557;51.698;3.942;2024-01-15T09:39:25;1999.90;;;511.40;;
9222;SDS011;7557;51.698;3.942;2024-01-15T09:41:52;578.70;;;519.37;;
9222;SDS011;7557;51.698;3.942;2024-01-15T09:44:20;294.63;;;281.10;;
9222;SDS011;7557;51.698;3.942;2024-01-15T09:46:49;693.43;;;524.17;;
9222;SDS011;7557;51.698;3.942;2024-01-15T09:49:19;654.93;;;533.87;;
9222;SDS011;7557;51.698;3.942;2024-01-15T09:51:47;484.40;;;450.10;;
9222;SDS011;7557;51.698;3.942;2024-01-15T09:54:15;566.87;;;513.50;;
9222;SDS011;7557;51.698;3.942;2024-01-15T09:56:43;627.53;;;565.03;;
9222;SDS011;7557;51.698;3.942;2024-01-15T09:59:13;1683.87;;;559.37;;
9222;SDS011;7557;51.698;3.942;2024-01-15T10:01:43;1999.90;;;696.23;;
9222;SDS011;7557;51.698;3.942;2024-01-15T10:04:10;1999.90;;;479.93;;
9222;SDS011;7557;51.698;3.942;2024-01-15T10:06:40;1999.90;;;515.23;;
9222;SDS011;7557;51.698;3.942;2024-01-15T10:09:13;1999.90;;;634.57;;
9222;SDS011;7557;51.698;3.942;2024-01-15T10:11:41;1999.90;;;615.43;;
9222;SDS011;7557;51.698;3.942;2024-01-15T10:14:08;1999.90;;;554.67;;
9222;SDS011;7557;51.698;3.942;2024-01-15T10:16:37;1567.20;;;420.63;;
9222;SDS011;7557;51.698;3.942;2024-01-15T10:19:05;1917.50;;;635.13;;
9222;SDS011;7557;51.698;3.942;2024-01-15T10:21:33;1999.90;;;486.47;;
9222;SDS011;7557;51.698;3.942;2024-01-15T10:24:03;1564.23;;;705.40;;
9222;SDS011;7557;51.698;3.942;2024-01-15T10:26:30;986.13;;;580.73;;
9222;SDS011;7557;51.698;3.942;2024-01-15T10:28:58;1071.27;;;535.07;;
9222;SDS011;7557;51.698;3.942;2024-01-15T10:31:26;557.27;;;502.67;;
9222;SDS011;7557;51.698;3.942;2024-01-15T10:33:54;548.97;;;504.50;;
9222;SDS011;7557;51.698;3.942;2024-01-15T10:36:35;573.70;;;515.03;;
9222;SDS011;7557;51.698;3.942;2024-01-15T10:39:08;561.37;;;517.33;;
9222;SDS011;7557;51.698;3.942;2024-01-15T10:41:37;1023.47;;;646.73;;
9222;SDS011;7557;51.698;3.942;2024-01-15T10:44:05;959.03;;;615.03;;
9222;SDS011;7557;51.698;3.942;2024-01-15T10:46:33;852.67;;;561.10;;
9222;SDS011;7557;51.698;3.942;2024-01-15T10:49:01;1834.27;;;667.63;;
9222;SDS011;7557;51.698;3.942;2024-01-15T10:51:29;247.30;;;234.33;;
9222;SDS011;7557;51.698;3.942;2024-01-15T10:53:57;1999.90;;;849.87;;
9222;SDS011;7557;51.698;3.942;2024-01-15T10:56:29;1999.90;;;787.13;;
9222;SDS011;7557;51.698;3.942;2024-01-15T10:58:58;1999.90;;;795.70;;
9222;SDS011;7557;51.698;3.942;2024-01-15T11:01:26;1999.90;;;546.43;;
9222;SDS011;7557;51.698;3.942;2024-01-15T11:03:54;1999.90;;;777.67;;
9222;SDS011;7557;51.698;3.942;2024-01-15T11:06:23;1999.90;;;577.70;;
9222;SDS011;7557;51.698;3.942;2024-01-15T11:08:51;1999.90;;;590.87;;
9222;SDS011;7557;51.698;3.942;2024-01-15T11:11:20;1288.37;;;619.73;;
9222;SDS011;7557;51.698;3.942;2024-01-15T11:13:50;1999.90;;;582.30;;
9222;SDS011;7557;51.698;3.942;2024-01-15T11:16:18;1070.80;;;660.37;;
9222;SDS011;7557;51.698;3.942;2024-01-15T11:21:28;1999.90;;;723.90;;
9222;SDS011;7557;51.698;3.942;2024-01-15T11:23:56;1999.90;;;714.23;;
9222;SDS011;7557;51.698;3.942;2024-01-15T11:26:32;1999.90;;;765.13;;
9222;SDS011;7557;51.698;3.942;2024-01-15T11:29:03;1581.43;;;748.70;;
9222;SDS011;7557;51.698;3.942;2024-01-15T11:34:50;1431.83;;;742.57;;
9222;SDS011;7557;51.698;3.942;2024-01-15T11:37:23;828.43;;;710.50;;
9222;SDS011;7557;51.698;3.942;2024-01-15T11:39:52;1717.83;;;727.77;;
9222;SDS011;7557;51.698;3.942;2024-01-15T11:42:21;1954.10;;;764.63;;
9222;SDS011;7557;51.698;3.942;2024-01-15T11:44:50;1999.90;;;589.53;;
9222;SDS011;7557;51.698;3.942;2024-01-15T11:47:24;1999.90;;;779.53;;
9222;SDS011;7557;51.698;3.942;2024-01-15T11:50:17;1780.50;;;772.60;;
9222;SDS011;7557;51.698;3.942;2024-01-15T11:52:47;1999.90;;;689.40;;
9222;SDS011;7557;51.698;3.942;2024-01-15T11:55:22;1999.90;;;713.00;;
9222;SDS011;7557;51.698;3.942;2024-01-15T11:57:54;1999.90;;;824.40;;
9222;SDS011;7557;51.698;3.942;2024-01-15T12:00:25;1676.27;;;742.57;;
9222;SDS011;7557;51.698;3.942;2024-01-15T12:02:53;1999.90;;;677.87;;
9222;SDS011;7557;51.698;3.942;2024-01-15T12:05:21;1626.73;;;708.90;;
9222;SDS011;7557;51.698;3.942;2024-01-15T12:07:49;1036.53;;;622.47;;
9222;SDS011;7557;51.698;3.942;2024-01-15T12:10:18;886.63;;;634.23;;
9222;SDS011;7557;51.698;3.942;2024-01-15T12:12:57;795.07;;;655.40;;
9222;SDS011;7557;51.698;3.942;2024-01-15T12:15:28;818.50;;;600.03;;
9222;SDS011;7557;51.698;3.942;2024-01-15T12:17:56;588.23;;;532.17;;
9222;SDS011;7557;51.698;3.942;2024-01-15T12:20:25;1963.90;;;637.90;;
9222;SDS011;7557;51.698;3.942;2024-01-15T12:22:53;1048.37;;;697.23;;
9222;SDS011;7557;51.698;3.942;2024-01-15T12:25:21;1833.07;;;413.20;;
9222;SDS011;7557;51.698;3.942;2024-01-15T12:27:49;1999.90;;;675.43;;
9222;SDS011;7557;51.698;3.942;2024-01-15T12:30:18;1359.17;;;723.07;;
9222;SDS011;7557;51.698;3.942;2024-01-15T12:32:47;1999.90;;;678.07;;
9222;SDS011;7557;51.698;3.942;2024-01-15T12:35:14;1999.90;;;620.97;;
9222;SDS011;7557;51.698;3.942;2024-01-15T12:37:42;1999.90;;;448.60;;
9222;SDS011;7557;51.698;3.942;2024-01-15T12:40:13;1275.10;;;253.73;;
9222;SDS011;7557;51.698;3.942;2024-01-15T12:42:46;1707.13;;;374.53;;
9222;SDS011;7557;51.698;3.942;2024-01-15T12:45:13;1727.83;;;434.77;;
9222;SDS011;7557;51.698;3.942;2024-01-15T12:47:41;635.37;;;232.87;;
9222;SDS011;7557;51.698;3.942;2024-01-15T12:50:12;1644.90;;;545.43;;
9222;SDS011;7557;51.698;3.942;2024-01-15T12:52:40;1153.00;;;587.87;;
9222;SDS011;7557;51.698;3.942;2024-01-15T12:55:08;931.93;;;641.13;;
9222;SDS011;7557;51.698;3.942;2024-01-15T12:57:36;1009.53;;;524.93;;
9222;SDS011;7557;51.698;3.942;2024-01-15T13:00:04;1034.93;;;382.77;;
9222;SDS011;7557;51.698;3.942;2024-01-15T13:02:36;1128.47;;;592.33;;
9222;SDS011;7557;51.698;3.942;2024-01-15T13:05:04;851.43;;;515.03;;
9222;SDS011;7557;51.698;3.942;2024-01-15T13:07:34;1123.63;;;680.00;;
9222;SDS011;7557;51.698;3.942;2024-01-15T13:10:01;554.80;;;507.57;;
9222;SDS011;7557;51.698;3.942;2024-01-15T13:12:29;939.83;;;668.73;;
9222;SDS011;7557;51.698;3.942;2024-01-15T13:14:58;1999.90;;;676.83;;
9222;SDS011;7557;51.698;3.942;2024-01-15T13:17:28;1999.90;;;565.83;;
9222;SDS011;7557;51.698;3.942;2024-01-15T13:19:56;1391.60;;;352.80;;
9222;SDS011;7557;51.698;3.942;2024-01-15T13:22:23;1303.43;;;459.33;;
9222;SDS011;7557;51.698;3.942;2024-01-15T13:24:58;1999.90;;;585.30;;
9222;SDS011;7557;51.698;3.942;2024-01-15T13:27:25;1999.90;;;641.83;;
9222;SDS011;7557;51.698;3.942;2024-01-15T13:29:53;1999.90;;;643.83;;
9222;SDS011;7557;51.698;3.942;2024-01-15T13:32:22;1999.90;;;644.33;;
9222;SDS011;7557;51.698;3.942;2024-01-15T13:34:52;1376.50;;;482.00;;
9222;SDS011;7557;51.698;3.942;2024-01-15T13:37:19;1999.90;;;556.10;;
9222;SDS011;7557;51.698;3.942;2024-01-15T13:39:48;1886.00;;;529.03;;
9222;SDS011;7557;51.698;3.942;2024-01-15T13:42:18;1628.87;;;559.47;;
9222;SDS011;7557;51.698;3.942;2024-01-15T13:44:47;1999.90;;;663.13;;
9222;SDS011;7557;51.698;3.942;2024-01-15T13:47:14;1435.77;;;459.17;;
9222;SDS011;7557;51.698;3.942;2024-01-15T13:49:42;1999.90;;;624.07;;
9222;SDS011;7557;51.698;3.942;2024-01-15T13:52:09;1999.90;;;560.53;;
9222;SDS011;7557;51.698;3.942;2024-01-15T13:54:37;1994.83;;;511.50;;
9222;SDS011;7557;51.698;3.942;2024-01-15T13:57:05;1999.90;;;489.03;;
9222;SDS011;7557;51.698;3.942;2024-01-15T13:59:34;1967.30;;;474.47;;
9222;SDS011;7557;51.698;3.942;2024-01-15T14:02:02;1983.53;;;390.60;;
9222;SDS011;7557;51.698;3.942;2024-01-15T14:04:30;1765.17;;;343.97;;
9222;SDS011;7557;51.698;3.942;2024-01-15T14:06:57;1108.33;;;586.77;;
9222;SDS011;7557;51.698;3.942;2024-01-15T14:09:25;987.40;;;296.50;;
9222;SDS011;7557;51.698;3.942;2024-01-15T14:11:52;860.77;;;416.77;;
9222;SDS011;7557;51.698;3.942;2024-01-15T14:14:20;815.37;;;434.60;;
9222;SDS011;7557;51.698;3.942;2024-01-15T14:16:49;1024.70;;;388.57;;
9222;SDS011;7557;51.698;3.942;2024-01-15T14:19:17;1003.63;;;455.93;;
9222;SDS011;7557;51.698;3.942;2024-01-15T14:21:45;1183.43;;;394.17;;
9222;SDS011;7557;51.698;3.942;2024-01-15T14:24:13;1572.30;;;428.70;;
9222;SDS011;7557;51.698;3.942;2024-01-15T14:26:41;1984.17;;;424.60;;
9222;SDS011;7557;51.698;3.942;2024-01-15T14:29:08;932.07;;;233.17;;
9222;SDS011;7557;51.698;3.942;2024-01-15T14:31:36;533.43;;;437.13;;
9222;SDS011;7557;51.698;3.942;2024-01-15T14:34:05;791.37;;;391.93;;